Impacts METAR Board
IDs:

KDTS - Destin Arpt, FL, US

Updated at: 1900 UTC 02 Oct 2022
Potential Impact None Slight Moderate High
Time 02/07Z 02/08Z 02/09Z 02/10Z 02/11Z 02/12Z 02/13Z 02/14Z 02/15Z 02/16Z 02/17Z 02/18Z 02/19Z
Temp68 68 67 66 65 64 68 71 75 81 84 84 83
Dewpt48 50 50 51 52 53 54 54 54 53 51 57 61
Altim29.96 29.96 29.96 29.97 29.98 30.00 30.01 30.02 30.03 30.03 30.01 29.99 29.96
VIS10 10 10 10 10 10 10 10 10 10 10 10 10
CIG-- -- -- -- -- -- -- -- -- -- -- -- --
CoverCLRCLRCLRCLRCLRCLRCLRCLRCLRCLRCLRCLRCLR
FltCatVFRVFRVFRVFRVFRVFRVFRVFRVFRVFRVFRVFRVFR
WX--------------------------
WDir3403503603603603503603403603301000
WSpd8 8 9 7 6 5 7 8 6 6 4 3 6
WGst-- -- -- -- -- -- -- -- -- -- -- -- --
Raw hourly METARs
KDTS 020653Z AUTO 34008KT 10SM CLR 20/09 A2996 RMK AO2 SLP144 T02000089
KDTS 020753Z AUTO 35008KT 10SM CLR 20/10 A2996 RMK AO2 SLP144 T02000100
KDTS 020853Z AUTO 36009KT 10SM CLR 19/10 A2996 RMK AO2 SLP144 T01940100 51002
KDTS 020953Z AUTO 36007KT 10SM CLR 19/11 A2997 RMK AO2 SLP149 T01890106
KDTS 021053Z 36006KT 10SM CLR 18/11 A2998 RMK AO2 SLP151 T01830111
KDTS 021153Z 35005KT 10SM CLR 18/12 A3000 RMK AO2 SLP157 T01780117 10206 20172 53013
KDTS 021253Z 36007KT 10SM CLR 20/12 A3001 RMK AO2 SLP162 T02000122
KDTS 021353Z 34008KT 10SM CLR 22/12 A3002 RMK AO2 SLP166 T02170122
KDTS 021453Z 36006KT 10SM CLR 24/12 A3003 RMK AO2 SLP169 T02390122 51013
KDTS 021553Z 33006KT 10SM CLR 27/12 A3003 RMK AO2 SLP167 T02720117
KDTS 021653Z 01004KT 10SM CLR 29/11 A3001 RMK AO2 SLP161 T02890106
KDTS 021753Z VRB03KT 10SM CLR 29/14 A2999 RMK AO2 SLP154 T02890139 10306 20172 58015
KDTS 021853Z VRB06KT 10SM CLR 28/16 A2996 RMK AO2 SLP145 T02830161



Page loaded:  19:09 UTC  |   12:09 PM Pacific  |   01:09 PM Mountain  |   02:09 PM Central  |   03:09 PM Eastern

 

ADVISORIES

FORECASTS

FORECASTS

OBSERVATIONS

USER TOOLS

ABOUT US